createdAt,value
2018-07-20T00:02:10.958Z,100.00
2018-07-20T00:04:39.994Z,99.38
2018-07-20T00:07:09.013Z,100.00
2018-07-20T00:09:38.219Z,99.67
2018-07-20T00:12:07.284Z,99.76
2018-07-20T00:14:36.329Z,100.00
2018-07-20T00:17:05.368Z,100.00
2018-07-20T00:19:34.409Z,99.15
2018-07-20T00:22:03.446Z,99.49
2018-07-20T00:24:32.405Z,100.00
2018-07-20T00:27:01.498Z,100.00
2018-07-20T00:29:30.475Z,100.00
2018-07-20T00:31:59.617Z,100.00
2018-07-20T00:34:28.637Z,99.48
2018-07-20T00:36:57.651Z,99.87
2018-07-20T00:39:26.713Z,98.75
2018-07-20T00:41:55.805Z,99.92
2018-07-20T00:44:24.761Z,100.00
2018-07-20T00:46:53.786Z,100.00
2018-07-20T00:49:22.864Z,99.68
2018-07-20T00:51:51.828Z,100.00
2018-07-20T00:54:20.856Z,99.62
2018-07-20T00:56:49.880Z,97.83
2018-07-20T00:59:18.860Z,98.13
2018-07-20T01:01:47.816Z,98.20
2018-07-20T01:04:16.862Z,98.85
2018-07-20T01:06:45.876Z,98.40
2018-07-20T01:09:14.861Z,97.51
2018-07-20T01:11:43.948Z,96.62
2018-07-20T01:14:12.920Z,95.38
2018-07-20T01:16:42.009Z,96.68
2018-07-20T01:19:10.983Z,95.54
2018-07-20T01:21:40.077Z,95.58
2018-07-20T01:24:09.132Z,96.16
2018-07-20T01:26:38.212Z,96.15
2018-07-20T01:29:07.180Z,94.13
2018-07-20T01:31:36.224Z,94.77
2018-07-20T01:34:05.244Z,95.63
2018-07-20T01:36:34.289Z,95.61
2018-07-20T01:39:03.469Z,94.92
2018-07-20T01:41:32.504Z,94.68
2018-07-20T01:44:01.558Z,94.76
2018-07-20T01:46:30.564Z,94.31
2018-07-20T01:48:59.658Z,94.48
2018-07-20T01:51:28.682Z,94.61
2018-07-20T01:53:57.702Z,94.31
2018-07-20T01:56:40.979Z,94.14
2018-07-20T01:59:09.995Z,93.99
2018-07-20T02:01:39.165Z,95.34
2018-07-20T02:04:08.338Z,94.43
2018-07-20T02:06:37.362Z,93.22
2018-07-20T02:09:08.947Z,93.19
2018-07-20T02:11:37.994Z,92.59
2018-07-20T02:14:07.163Z,93.49
2018-07-20T02:16:36.279Z,92.60
2018-07-20T02:19:05.260Z,93.52
2018-07-20T02:21:34.236Z,92.59
2018-07-20T02:24:03.290Z,92.40
2018-07-20T02:26:32.252Z,91.08
2018-07-20T02:29:01.316Z,92.45
2018-07-20T02:31:30.340Z,91.55
2018-07-20T02:33:59.372Z,90.68
2018-07-20T02:36:28.364Z,91.05
2018-07-20T02:38:57.371Z,90.67
2018-07-20T02:41:26.475Z,90.45
2018-07-20T02:43:55.517Z,90.00
2018-07-20T02:46:24.562Z,91.08
2018-07-20T02:48:53.585Z,90.19
2018-07-20T02:51:22.624Z,89.97
2018-07-20T02:53:51.694Z,90.03
2018-07-20T02:56:20.737Z,88.72
2018-07-20T02:58:49.776Z,88.83
2018-07-20T03:01:18.801Z,89.53
2018-07-20T03:03:47.847Z,89.27
2018-07-20T03:06:16.987Z,89.46
2018-07-20T03:08:46.027Z,90.03
2018-07-20T03:11:15.133Z,90.08
2018-07-20T03:13:44.462Z,89.10
2018-07-20T03:16:13.464Z,89.73
2018-07-20T03:18:42.486Z,89.54
2018-07-20T03:21:11.678Z,89.63
2018-07-20T03:23:40.772Z,89.66
2018-07-20T03:26:09.773Z,90.45
2018-07-20T03:28:38.747Z,90.84
2018-07-20T03:31:07.775Z,90.49
2018-07-20T03:33:36.813Z,89.08
2018-07-20T03:36:05.772Z,89.52
2018-07-20T03:38:34.764Z,89.50
2018-07-20T03:41:03.810Z,89.15
2018-07-20T03:43:33.005Z,90.17
2018-07-20T03:46:02.036Z,93.03
2018-07-20T03:48:31.127Z,95.85
2018-07-20T03:51:00.079Z,98.58
2018-07-20T03:53:29.157Z,100.00
2018-07-20T03:55:58.233Z,100.00
2018-07-20T03:58:27.305Z,100.00
2018-07-20T04:00:56.271Z,100.00
2018-07-20T04:03:25.328Z,100.00
2018-07-20T04:05:54.299Z,100.00
2018-07-20T04:08:23.356Z,100.00
2018-07-20T04:10:52.445Z,100.00
2018-07-20T04:13:21.432Z,100.00
2018-07-20T04:15:50.435Z,100.00
2018-07-20T04:18:19.499Z,100.00
2018-07-20T04:20:48.537Z,100.00
2018-07-20T04:23:17.521Z,100.00
2018-07-20T04:25:47.352Z,100.00
2018-07-20T04:28:16.422Z,100.00
2018-07-20T04:30:45.486Z,98.70
2018-07-20T04:33:14.508Z,97.09
2018-07-20T04:35:43.462Z,98.19
2018-07-20T04:38:12.546Z,95.17
2018-07-20T04:40:41.540Z,96.04
2018-07-20T04:43:10.705Z,95.32
2018-07-20T04:45:39.749Z,93.19
2018-07-20T04:48:08.765Z,91.10
2018-07-20T04:50:38.195Z,86.43
2018-07-20T04:53:07.247Z,82.34
2018-07-20T04:55:36.296Z,75.05
2018-07-20T04:58:05.276Z,68.88
2018-07-20T05:00:34.282Z,66.88
2018-07-20T05:03:03.309Z,70.20
2018-07-20T05:05:32.372Z,73.46
2018-07-20T05:08:02.217Z,74.36
2018-07-20T05:10:31.261Z,76.73
2018-07-20T05:13:00.302Z,76.93
2018-07-20T05:15:29.309Z,76.97
2018-07-20T05:17:58.336Z,78.99
2018-07-20T05:20:27.352Z,79.60
2018-07-20T05:22:56.394Z,81.36
2018-07-20T05:25:25.462Z,79.49
2018-07-20T05:27:54.569Z,79.56
2018-07-20T05:30:23.613Z,76.58
2018-07-20T05:32:52.571Z,69.96
2018-07-20T05:35:21.592Z,70.19
2018-07-20T05:37:50.617Z,67.07
2018-07-20T05:40:19.730Z,61.75
2018-07-20T05:42:48.701Z,56.25
2018-07-20T05:45:17.647Z,56.28
2018-07-20T05:47:46.612Z,56.63
2018-07-20T05:50:15.614Z,58.81
2018-07-20T05:52:44.601Z,58.18
2018-07-20T05:55:13.602Z,59.79
2018-07-20T05:57:42.572Z,62.73
2018-07-20T06:00:11.589Z,61.88
2018-07-20T06:02:40.603Z,61.56
2018-07-20T06:05:09.667Z,64.01
2018-07-20T06:07:38.627Z,62.98
2018-07-20T06:10:07.694Z,63.28
2018-07-20T06:12:36.676Z,60.38
2018-07-20T06:15:06.209Z,60.14
2018-07-20T06:17:35.342Z,60.14
2018-07-20T06:20:04.424Z,59.44
2018-07-20T06:22:33.380Z,60.36
2018-07-20T06:25:02.347Z,59.83
2018-07-20T06:27:31.390Z,55.12
2018-07-20T06:30:00.619Z,56.95
2018-07-20T06:32:29.664Z,57.97
2018-07-20T06:34:58.742Z,60.41
2018-07-20T06:37:27.774Z,59.56
2018-07-20T06:39:56.748Z,57.86
2018-07-20T06:42:25.795Z,56.07
2018-07-20T06:44:54.781Z,58.32
2018-07-20T06:47:23.853Z,58.99
2018-07-20T06:49:52.870Z,57.77
2018-07-20T06:52:21.874Z,58.36
2018-07-20T06:54:50.902Z,57.50
2018-07-20T06:57:19.916Z,55.47
2018-07-20T06:59:48.963Z,53.98
2018-07-20T07:02:18.039Z,55.51
2018-07-20T07:04:47.096Z,55.46
2018-07-20T07:07:16.113Z,53.76
2018-07-20T07:09:45.129Z,51.26
2018-07-20T07:12:14.219Z,49.51
2018-07-20T07:14:43.292Z,51.63
2018-07-20T07:17:12.414Z,53.48
2018-07-20T07:19:42.127Z,51.97
2018-07-20T07:22:11.262Z,52.72
2018-07-20T07:24:40.300Z,52.09
2018-07-20T07:27:09.349Z,52.13
2018-07-20T07:29:38.329Z,53.85
2018-07-20T07:32:07.294Z,52.24
2018-07-20T07:34:36.307Z,54.19
2018-07-20T07:37:05.497Z,52.09
2018-07-20T07:39:34.529Z,53.48
2018-07-20T07:42:03.576Z,50.68
2018-07-20T07:44:32.647Z,52.61
2018-07-20T07:47:01.706Z,51.03
2018-07-20T07:49:30.735Z,53.76
2018-07-20T07:51:59.813Z,52.72
2018-07-20T07:54:28.883Z,49.84
2018-07-20T07:56:57.844Z,49.56
2018-07-20T07:59:26.943Z,47.34
2018-07-20T08:01:55.964Z,51.90
2018-07-20T08:04:25.077Z,49.66
2018-07-20T08:06:54.060Z,48.25
2018-07-20T08:09:23.099Z,50.21
2018-07-20T08:11:52.126Z,50.44
2018-07-20T08:14:21.136Z,49.76
2018-07-20T08:16:50.196Z,49.99
2018-07-20T08:19:19.254Z,48.62
2018-07-20T08:21:48.280Z,50.03
2018-07-20T08:24:17.246Z,48.29
2018-07-20T08:26:46.305Z,46.74
2018-07-20T08:29:15.340Z,47.52
2018-07-20T08:31:44.412Z,46.36
2018-07-20T08:34:13.403Z,49.37
2018-07-20T08:36:42.371Z,48.33
2018-07-20T08:39:11.853Z,50.76
2018-07-20T08:41:40.892Z,49.70
2018-07-20T08:44:09.930Z,50.79
2018-07-20T08:46:39.060Z,51.71
2018-07-20T08:49:08.120Z,49.98
2018-07-20T08:51:37.148Z,52.25
2018-07-20T08:54:06.175Z,52.67
2018-07-20T08:56:35.215Z,52.10
2018-07-20T08:59:04.265Z,52.65
2018-07-20T09:01:33.281Z,51.58
2018-07-20T09:04:02.314Z,52.27
2018-07-20T09:06:31.393Z,53.49
2018-07-20T09:09:00.409Z,53.22
2018-07-20T09:11:29.417Z,54.29
2018-07-20T09:13:58.551Z,53.07
2018-07-20T09:16:27.523Z,55.88
2018-07-20T09:18:56.574Z,53.79
2018-07-20T09:21:25.609Z,51.99
2018-07-20T09:23:54.648Z,53.25
2018-07-20T09:26:23.665Z,50.28
2018-07-20T09:28:52.673Z,49.65
2018-07-20T09:31:21.683Z,47.23
2018-07-20T09:33:50.706Z,47.09
2018-07-20T09:36:19.776Z,45.75
2018-07-20T09:38:48.832Z,47.25
2018-07-20T09:41:17.878Z,46.67
2018-07-20T09:43:46.993Z,46.40
2018-07-20T09:46:16.166Z,47.14
2018-07-20T09:48:45.140Z,47.82
2018-07-20T09:51:14.122Z,47.86
2018-07-20T09:53:43.189Z,47.14
2018-07-20T09:56:12.218Z,47.73
2018-07-20T09:58:41.273Z,45.38
2018-07-20T10:01:10.252Z,46.01
2018-07-20T10:03:39.317Z,46.27
2018-07-20T10:06:08.373Z,46.51
2018-07-20T10:08:37.417Z,44.23
2018-07-20T10:11:06.405Z,42.93
2018-07-20T10:13:35.385Z,43.18
2018-07-20T10:16:04.417Z,41.59
2018-07-20T10:18:33.500Z,42.74
2018-07-20T10:21:02.501Z,42.98
2018-07-20T10:23:31.463Z,42.42
2018-07-20T10:26:00.497Z,43.47
2018-07-20T10:28:29.516Z,39.60
2018-07-20T10:30:58.607Z,39.53
2018-07-20T10:33:27.680Z,39.37
2018-07-20T10:35:56.659Z,39.96
2018-07-20T10:38:25.666Z,40.53
2018-07-20T10:40:54.723Z,40.39
2018-07-20T10:43:25.205Z,41.03
2018-07-20T10:45:54.163Z,41.16
2018-07-20T10:48:23.236Z,43.49
2018-07-20T10:50:52.289Z,43.20
2018-07-20T10:53:21.260Z,44.92
2018-07-20T10:55:50.365Z,46.10
2018-07-20T10:58:19.404Z,44.17
2018-07-20T11:00:48.473Z,40.05
2018-07-20T11:03:17.435Z,39.97
2018-07-20T11:05:46.497Z,37.38
2018-07-20T11:08:15.510Z,40.17
2018-07-20T11:10:44.620Z,42.32
2018-07-20T11:13:13.873Z,40.95
2018-07-20T11:15:42.841Z,41.14
2018-07-20T11:18:11.813Z,39.95
2018-07-20T11:20:40.857Z,40.60
2018-07-20T11:23:09.827Z,39.32
2018-07-20T11:25:38.790Z,37.41
2018-07-20T11:28:07.812Z,38.80
2018-07-20T11:30:36.836Z,37.70
2018-07-20T11:33:05.932Z,38.60
2018-07-20T11:35:34.925Z,36.13
2018-07-20T11:38:03.892Z,36.13
2018-07-20T11:40:32.933Z,34.48
2018-07-20T11:43:01.903Z,35.19
2018-07-20T11:45:30.866Z,33.16
2018-07-20T11:47:59.871Z,33.28
2018-07-20T11:50:28.854Z,33.18
2018-07-20T11:52:57.816Z,32.20
2018-07-20T11:55:26.869Z,31.42
2018-07-20T11:57:55.980Z,31.20
2018-07-20T12:00:25.033Z,30.30
2018-07-20T12:02:54.070Z,32.16
2018-07-20T12:05:23.182Z,32.40
2018-07-20T12:07:52.417Z,32.00
2018-07-20T12:10:21.485Z,32.25
2018-07-20T12:12:50.614Z,31.54
2018-07-20T12:15:19.701Z,31.20
2018-07-20T12:17:48.853Z,34.07
2018-07-20T12:20:17.882Z,32.27
2018-07-20T12:22:46.833Z,31.93
2018-07-20T12:25:15.863Z,32.81
2018-07-20T12:27:44.819Z,32.92
2018-07-20T12:30:13.865Z,32.68
2018-07-20T12:32:42.884Z,33.01
2018-07-20T12:35:11.932Z,32.43
2018-07-20T12:37:40.900Z,31.70
2018-07-20T12:40:09.917Z,32.71
2018-07-20T12:42:38.880Z,32.89
2018-07-20T12:45:08.369Z,33.83
2018-07-20T12:47:37.692Z,34.63
2018-07-20T12:50:06.810Z,36.63
2018-07-20T12:52:35.804Z,36.76
2018-07-20T12:55:04.825Z,35.86
2018-07-20T12:57:33.877Z,37.77
2018-07-20T13:00:02.988Z,37.27
2018-07-20T13:02:32.114Z,38.25
2018-07-20T13:05:01.230Z,37.51
2018-07-20T13:07:30.204Z,38.84
2018-07-20T13:09:59.347Z,40.87
2018-07-20T13:12:28.325Z,36.77
2018-07-20T13:14:57.361Z,37.47
2018-07-20T13:17:26.433Z,34.88
2018-07-20T13:19:55.428Z,35.69
2018-07-20T13:22:24.589Z,36.76
2018-07-20T13:24:53.664Z,35.54
2018-07-20T13:27:22.742Z,34.83
2018-07-20T13:29:51.736Z,33.60
2018-07-20T13:32:20.739Z,34.23
2018-07-20T13:34:49.769Z,34.22
2018-07-20T13:37:18.760Z,35.24
2018-07-20T13:39:47.802Z,36.32
2018-07-20T13:42:16.841Z,37.27
2018-07-20T13:44:45.853Z,36.11
2018-07-20T13:47:14.896Z,36.72
2018-07-20T13:49:43.896Z,36.13
2018-07-20T13:52:12.872Z,35.09
2018-07-20T13:54:41.935Z,33.28
2018-07-20T13:57:11.055Z,34.06
2018-07-20T13:59:40.068Z,34.58
2018-07-20T14:02:09.051Z,34.25
2018-07-20T14:04:38.040Z,35.60
2018-07-20T14:07:07.120Z,36.16
2018-07-20T14:09:36.157Z,38.32
2018-07-20T14:12:05.152Z,39.10
2018-07-20T14:14:34.180Z,40.58
2018-07-20T14:17:03.257Z,41.91
2018-07-20T14:19:32.252Z,41.31
2018-07-20T14:22:01.301Z,41.79
2018-07-20T14:24:30.637Z,41.36
2018-07-20T14:27:00.017Z,41.47
2018-07-20T14:29:29.074Z,42.48
2018-07-20T14:31:58.345Z,44.62
2018-07-20T14:34:27.336Z,43.53
2018-07-20T14:36:56.308Z,42.61
2018-07-20T14:39:25.349Z,43.46
2018-07-20T14:41:54.397Z,44.09
2018-07-20T14:44:23.452Z,44.30
2018-07-20T14:46:52.484Z,43.33
2018-07-20T14:49:21.521Z,43.84
2018-07-20T14:51:50.487Z,44.22
2018-07-20T14:54:19.572Z,44.58
2018-07-20T14:56:48.570Z,43.12
2018-07-20T14:59:17.666Z,43.51
2018-07-20T15:01:46.776Z,44.12
2018-07-20T15:04:15.760Z,44.64
2018-07-20T15:06:44.914Z,44.52
2018-07-20T15:09:13.961Z,44.04
2018-07-20T15:11:42.954Z,45.89
2018-07-20T15:14:11.924Z,45.13
2018-07-20T15:16:40.981Z,45.09
2018-07-20T15:19:09.933Z,44.97
2018-07-20T15:21:38.885Z,47.21
2018-07-20T15:24:07.950Z,45.68
2018-07-20T15:26:36.973Z,45.29
2018-07-20T15:29:06.000Z,45.88
2018-07-20T15:31:34.996Z,46.06
2018-07-20T15:34:03.973Z,45.53
2018-07-20T15:36:32.935Z,45.79
2018-07-20T15:39:01.949Z,47.14
2018-07-20T15:41:30.976Z,46.37
2018-07-20T15:44:00.023Z,47.64
2018-07-20T15:46:29.136Z,47.37
2018-07-20T15:48:57.991Z,49.92
2018-07-20T15:51:55.486Z,48.72
2018-07-20T15:53:55.995Z,49.68
2018-07-20T15:56:25.004Z,49.42
2018-07-20T15:58:53.961Z,49.74
2018-07-20T16:01:23.021Z,49.09
2018-07-20T16:03:51.968Z,50.23
2018-07-20T16:06:21.069Z,50.05
2018-07-20T16:08:50.052Z,50.29
2018-07-20T16:11:19.064Z,49.82
2018-07-20T16:13:48.036Z,52.67
2018-07-20T16:16:17.228Z,51.99
2018-07-20T16:18:46.256Z,50.82
2018-07-20T16:21:15.216Z,51.30
2018-07-20T16:23:44.314Z,50.53
2018-07-20T16:26:13.398Z,52.82
2018-07-20T16:28:42.415Z,52.55
2018-07-20T16:31:11.468Z,53.13
2018-07-20T16:33:40.506Z,53.71
2018-07-20T16:36:09.492Z,53.08
2018-07-20T16:38:38.590Z,54.93
2018-07-20T16:41:07.898Z,53.60
2018-07-20T16:43:36.937Z,55.00
2018-07-20T16:46:06.001Z,54.48
2018-07-20T16:48:35.007Z,54.39
2018-07-20T16:51:04.784Z,54.84
2018-07-20T16:53:33.805Z,57.92
2018-07-20T16:56:02.889Z,55.54
2018-07-20T16:58:34.089Z,57.32
2018-07-20T17:01:03.098Z,57.59
2018-07-20T17:03:32.122Z,57.38
2018-07-20T17:06:01.360Z,58.12
2018-07-20T17:08:30.449Z,57.52
2018-07-20T17:10:59.467Z,58.36
2018-07-20T17:13:28.468Z,58.20
2018-07-20T17:15:57.508Z,59.07
2018-07-20T17:18:26.622Z,58.21
2018-07-20T17:20:55.657Z,58.32
2018-07-20T17:23:24.595Z,58.17
2018-07-20T17:25:53.732Z,58.04
2018-07-20T17:28:22.814Z,59.01
2018-07-20T17:30:51.782Z,59.01
2018-07-20T17:33:20.865Z,59.97
2018-07-20T17:35:50.048Z,60.88
2018-07-20T17:38:19.226Z,60.42
2018-07-20T17:40:48.220Z,60.10
2018-07-20T17:43:17.312Z,60.76
2018-07-20T17:45:46.626Z,61.31
2018-07-20T17:48:15.689Z,61.66
2018-07-20T17:50:44.842Z,62.62
2018-07-20T17:53:13.885Z,62.03
2018-07-20T17:55:42.888Z,62.60
2018-07-20T17:58:11.998Z,64.18
2018-07-20T18:00:40.975Z,63.23
2018-07-20T18:03:09.977Z,63.78
2018-07-20T18:05:39.075Z,63.75
2018-07-20T18:08:08.043Z,63.67
2018-07-20T18:10:36.984Z,66.26
2018-07-20T18:13:06.032Z,65.60
2018-07-20T18:15:35.036Z,66.67
2018-07-20T18:18:04.184Z,67.69
2018-07-20T18:20:33.194Z,69.24
2018-07-20T18:23:02.233Z,70.24
2018-07-20T18:25:31.232Z,70.29
2018-07-20T18:28:00.335Z,71.49
2018-07-20T18:30:29.336Z,72.17
2018-07-20T18:32:58.288Z,72.18
2018-07-20T18:35:27.385Z,74.22
2018-07-20T18:37:56.426Z,72.63
2018-07-20T18:40:25.400Z,73.51
2018-07-20T18:42:54.440Z,73.31
2018-07-20T18:45:23.549Z,73.93
2018-07-20T18:47:52.576Z,74.43
2018-07-20T18:50:21.656Z,74.36
2018-07-20T18:52:50.748Z,73.80
2018-07-20T18:55:19.713Z,74.50
2018-07-20T18:57:48.753Z,74.88
2018-07-20T19:00:17.782Z,74.60
2018-07-20T19:02:46.829Z,75.19
2018-07-20T19:05:15.952Z,75.07
2018-07-20T19:07:44.953Z,75.74
2018-07-20T19:10:14.019Z,74.64
2018-07-20T19:12:43.106Z,75.93
2018-07-20T19:15:12.064Z,75.23
2018-07-20T19:17:41.146Z,74.61
2018-07-20T19:20:10.209Z,74.13
2018-07-20T19:22:39.289Z,73.32
2018-07-20T19:25:08.325Z,72.28
2018-07-20T19:27:37.393Z,72.93
2018-07-20T19:30:06.368Z,72.34
2018-07-20T19:32:35.418Z,72.05
2018-07-20T19:35:04.472Z,71.73
2018-07-20T19:37:33.418Z,70.84
2018-07-20T19:40:02.458Z,71.51
2018-07-20T19:42:31.636Z,70.34
2018-07-20T19:45:00.599Z,69.82
2018-07-20T19:47:29.559Z,70.07
2018-07-20T19:49:58.564Z,70.91
2018-07-20T19:52:27.536Z,70.22
2018-07-20T19:54:56.508Z,69.83
2018-07-20T19:57:25.517Z,70.44
2018-07-20T19:59:54.538Z,69.93
2018-07-20T20:02:23.626Z,70.19
2018-07-20T20:04:52.700Z,69.04
2018-07-20T20:07:21.748Z,68.58
2018-07-20T20:09:50.774Z,67.91
2018-07-20T20:12:19.713Z,67.96
2018-07-20T20:14:48.687Z,68.20
2018-07-20T20:17:17.679Z,68.72
2018-07-20T20:19:46.687Z,68.63
2018-07-20T20:22:15.747Z,68.87
2018-07-20T20:24:44.999Z,69.97
2018-07-20T20:27:14.009Z,68.55
2018-07-20T20:29:43.022Z,69.63
2018-07-20T20:32:12.011Z,69.92
2018-07-20T20:34:41.059Z,69.79
2018-07-20T20:37:10.099Z,69.13
2018-07-20T20:39:39.048Z,69.84
2018-07-20T20:42:08.308Z,70.08
2018-07-20T20:44:37.267Z,69.24
2018-07-20T20:47:06.292Z,69.58
2018-07-20T20:49:35.419Z,69.07
2018-07-20T20:52:04.413Z,69.46
2018-07-20T20:54:33.440Z,67.44
2018-07-20T20:57:02.469Z,68.23
2018-07-20T20:59:31.400Z,67.65
2018-07-20T21:02:00.436Z,68.18
2018-07-20T21:04:29.553Z,68.57
2018-07-20T21:06:58.596Z,67.28
2018-07-20T21:09:27.620Z,67.89
2018-07-20T21:11:56.705Z,68.50
2018-07-20T21:14:25.618Z,67.99
2018-07-20T21:16:54.632Z,67.68
2018-07-20T21:19:23.628Z,68.58
2018-07-20T21:21:52.628Z,69.03
2018-07-20T21:24:21.657Z,68.71
2018-07-20T21:26:50.652Z,69.22
2018-07-20T21:29:19.610Z,68.24
2018-07-20T21:31:48.582Z,68.63
2018-07-20T21:34:17.632Z,68.90
2018-07-20T21:36:46.721Z,69.41
2018-07-20T21:39:15.837Z,69.24
2018-07-20T21:41:44.787Z,69.08
2018-07-20T21:44:13.838Z,70.12
2018-07-20T21:46:42.880Z,69.78
2018-07-20T21:49:11.816Z,69.44
2018-07-20T21:51:40.850Z,69.31
2018-07-20T21:54:09.831Z,69.16
2018-07-20T21:56:38.788Z,69.10
2018-07-20T21:59:07.804Z,68.99
2018-07-20T22:01:36.899Z,68.71
2018-07-20T22:04:05.932Z,68.75
2018-07-20T22:06:35.037Z,69.97
2018-07-20T22:09:04.533Z,69.92
2018-07-20T22:11:33.502Z,69.45
2018-07-20T22:14:02.479Z,70.04
2018-07-20T22:16:31.420Z,70.08
2018-07-20T22:19:00.407Z,70.88
2018-07-20T22:21:29.403Z,70.16
2018-07-20T22:23:58.505Z,71.04
2018-07-20T22:26:27.638Z,70.19
2018-07-20T22:28:56.665Z,69.86
2018-07-20T22:31:25.709Z,70.69
2018-07-20T22:33:54.747Z,71.41
2018-07-20T22:36:23.842Z,70.96
2018-07-20T22:38:52.857Z,71.36
2018-07-20T22:41:21.945Z,70.52
2018-07-20T22:43:51.047Z,69.97
2018-07-20T22:46:20.096Z,70.79
2018-07-20T22:48:49.052Z,70.12
2018-07-20T22:51:18.008Z,70.94
2018-07-20T22:53:46.983Z,71.21
2018-07-20T22:56:15.957Z,71.28
2018-07-20T22:58:45.077Z,70.47
2018-07-20T23:01:14.118Z,71.17
2018-07-20T23:03:43.149Z,71.52
2018-07-20T23:06:42.848Z,71.20
2018-07-20T23:09:12.161Z,71.45
2018-07-20T23:11:41.260Z,71.44
2018-07-20T23:14:10.296Z,71.99
2018-07-20T23:16:39.499Z,72.58
2018-07-20T23:19:09.051Z,72.15
2018-07-20T23:21:38.036Z,72.41
2018-07-20T23:24:07.077Z,72.87
2018-07-20T23:26:36.047Z,72.67
2018-07-20T23:29:05.085Z,72.89
2018-07-20T23:31:34.180Z,72.80
2018-07-20T23:34:03.167Z,72.08
2018-07-20T23:36:32.186Z,72.90
2018-07-20T23:39:01.165Z,72.22
2018-07-20T23:41:30.317Z,72.60
2018-07-20T23:43:59.306Z,72.30
2018-07-20T23:46:28.359Z,72.65
2018-07-20T23:48:57.351Z,71.85
2018-07-20T23:51:26.316Z,72.33
2018-07-20T23:53:55.412Z,72.46
2018-07-20T23:56:24.383Z,72.79
2018-07-20T23:58:53.452Z,71.60
